createdAt,value
2022-08-02T00:00:03.391Z,476
2022-08-02T00:15:03.389Z,475
2022-08-02T00:30:05.567Z,475
2022-08-02T00:45:04.498Z,474
2022-08-02T01:00:04.714Z,474
2022-08-02T01:30:06.614Z,474
2022-08-02T01:45:02.441Z,474
2022-08-02T02:00:05.484Z,474
2022-08-02T02:15:05.789Z,473
2022-08-02T02:30:02.723Z,473
2022-08-02T02:45:06.473Z,471
2022-08-02T03:20:06.763Z,471
2022-08-02T03:50:06.477Z,471
2022-08-02T04:20:05.388Z,470
2022-08-02T04:35:05.461Z,470
2022-08-02T04:50:03.547Z,470
2022-08-02T05:20:05.458Z,470
2022-08-02T05:35:03.454Z,471
2022-08-02T05:50:04.457Z,472
2022-08-02T06:05:06.581Z,467
2022-08-02T06:20:02.505Z,460
2022-08-02T06:35:06.827Z,450
2022-08-02T06:50:06.674Z,443
2022-08-02T07:05:06.549Z,433
2022-08-02T07:20:02.632Z,426
2022-08-02T07:35:06.852Z,423
2022-08-02T07:50:05.767Z,420
2022-08-02T08:05:04.871Z,417
2022-08-02T08:20:02.631Z,414
2022-08-02T08:35:02.592Z,413
2022-08-02T09:05:06.618Z,414
2022-08-02T09:20:04.759Z,413
2022-08-02T09:35:02.602Z,415
2022-08-02T09:50:03.463Z,414
2022-08-02T10:20:02.422Z,414
2022-08-02T10:35:03.412Z,418
2022-08-02T10:50:05.661Z,427
2022-08-02T11:05:03.726Z,432
2022-08-02T11:35:02.414Z,439
2022-08-02T11:50:06.482Z,448
2022-08-02T12:05:03.732Z,449
2022-08-02T12:20:05.730Z,456
2022-08-02T12:35:06.735Z,466
2022-08-02T12:50:06.889Z,470
2022-08-02T13:05:04.531Z,475
2022-08-02T13:20:03.856Z,490
2022-08-02T13:35:06.656Z,497
2022-08-02T13:50:03.386Z,512
2022-08-02T14:05:05.499Z,519
2022-08-02T14:35:04.397Z,517
2022-08-02T14:50:03.773Z,519
2022-08-02T15:05:03.663Z,516
2022-08-02T15:35:05.356Z,516
2022-08-02T15:50:06.810Z,517
2022-08-02T16:20:02.448Z,515
2022-08-02T16:35:02.519Z,515
2022-08-02T16:50:04.426Z,515
2022-08-02T17:10:04.584Z,514
2022-08-02T17:25:02.497Z,513
2022-08-02T17:40:05.737Z,512
2022-08-02T18:10:04.703Z,510
2022-08-02T18:25:05.617Z,509
2022-08-02T18:40:04.397Z,508
2022-08-02T19:10:02.374Z,508
2022-08-02T19:25:03.882Z,506
2022-08-02T19:40:06.874Z,505
2022-08-02T19:55:05.382Z,504
2022-08-02T20:10:06.688Z,503
2022-08-02T20:25:03.823Z,501
2022-08-02T20:55:03.810Z,500
2022-08-02T21:10:06.679Z,499
2022-08-02T21:40:02.604Z,499
2022-08-02T21:55:05.752Z,497
2022-08-02T22:25:05.383Z,496
2022-08-02T22:40:04.799Z,495
2022-08-02T22:55:04.828Z,494
2022-08-02T23:25:05.437Z,494
2022-08-02T23:40:05.813Z,492
